Thunder radar more information blitzortung!


Radar de pluja more information rain snow radar


Visita la nostra xarxa de llocs de meteo:

Template documentation
and downloads

And another site



No particular awareness of the weather is required.    There are no Weather-warnings

Pagina Historial Weather Underground text

Diari Resum Setembre 22, 2017 Unitats:  Mètric    Imperial   Tant
« Previous Dia
SegĂźent Dia »
Diari Setmana Mensual Anual Personalitzada
  Maxima: Minima: Media:
Temperatura: -17.8 °C -9 °C -7.2 °C
Punt de rosada: -17.8 °C -10.2 °C -9.5 °C
Humitat: Humidity % 62 % 77 %
Wind Speed: 0 km/h 0 km/h 5.3 km/h
RĂ fegues de vent: 0 km/h - -
Vent:- - SE
Pression baro: 0 hPa 34496.6 hPa -
Precipitacions: 104.14 mm    
Historical Graphs
 
 
Dades de taula per Setembre 22, 2017
Temps Temperatura Punt de rosada Pression baro Vent Wind Speed RĂ fegues de vent Humitat Rainfall Rate (Hourly)
-17.8 °C -17.8 °C 0 hPa Calm     Humidity % 0 mm
00:00 -7.2 °C -9.1 °C 34496.6 hPa Calm     81 % 0 mm
00:05 -7.2 °C -9.1 °C 34496.6 hPa Calm     81 % 0 mm
00:10 -7.3 °C -9 °C 34496.6 hPa Calm     82 % 0 mm
00:20 -8.6 °C -9.6 °C 34533.8 hPa Calm     89 % 0 mm
00:30 -8.6 °C -9.6 °C 34533.8 hPa Calm     89 % 0 mm
00:40 -8.6 °C -9.6 °C 34533.8 hPa Calm     89 % 0 mm
00:50 -8.7 °C -9.7 °C 34533.8 hPa SE 2.6 km/h 5.1 km/h 89 % 0 mm
01:00 -8.8 °C -9.8 °C 34533.8 hPa Calm   5.1 km/h 89 % 0 mm
01:10 -8.8 °C -9.8 °C 34533.8 hPa SW 2.6 km/h 5.1 km/h 89 % 0 mm
01:20 -8.8 °C -9.7 °C 34533.8 hPa WSW 5.1 km/h 5.1 km/h 90 % 0 mm
01:30 -8.8 °C -9.8 °C 34533.8 hPa Calm   5.1 km/h 90 % 0 mm
01:40 -8.9 °C -9.9 °C 34533.8 hPa NNW 2.6 km/h 2.6 km/h 89 % 0 mm
01:50 -8.9 °C -9.9 °C 34533.8 hPa Calm   5.1 km/h 89 % 0 mm
02:00 -8.9 °C -9.9 °C 34533.8 hPa WSW 5.1 km/h 7.7 km/h 89 % 0 mm
02:10 -9 °C -9.9 °C 34533.8 hPa SW 2.6 km/h 7.7 km/h 90 % 0 mm
02:20 -8.9 °C -9.8 °C 34533.8 hPa SW 2.6 km/h 5.1 km/h 90 % 0 mm
02:30 -8.9 °C -9.7 °C 34533.8 hPa Calm   2.6 km/h 91 % 0 mm
02:40 -8.8 °C -9.7 °C 34533.8 hPa WSW 2.6 km/h 5.1 km/h 91 % 0 mm
02:50 -8.8 °C -9.6 °C 34533.8 hPa WSW 2.6 km/h 5.1 km/h 91 % 0 mm
03:00 -8.8 °C -9.6 °C 34533.8 hPa Calm     91 % 0 mm
03:10 -8.7 °C -9.4 °C 34533.8 hPa Calm     92 % 0 mm
03:20 -8.7 °C -9.4 °C 34533.8 hPa Calm   2.6 km/h 92 % 0 mm
03:30 -8.6 °C -9.3 °C 34533.8 hPa Calm   2.6 km/h 92 % 0 mm
03:40 -8.4 °C -9.2 °C 34567.7 hPa Calm     92 % 0 mm
03:50 -8.2 °C -8.9 °C 34567.7 hPa Calm     92 % 0 mm
04:00 -8.3 °C -9.1 °C 34567.7 hPa NNW 2.6 km/h 5.1 km/h 91 % 0 mm
04:10 -8.2 °C -9.1 °C 34567.7 hPa Calm     91 % 0 mm
04:20 -7.9 °C -8.7 °C 34567.7 hPa WNW 2.6 km/h   91 % 0 mm
04:30 -7.6 °C -8.6 °C 34567.7 hPa Calm   2.6 km/h 90 % 0 mm
04:40 -7.3 °C -8.4 °C 34567.7 hPa NE 5.1 km/h 7.7 km/h 88 % 0 mm
04:50 -7.2 °C -8.7 °C 34567.7 hPa NE 5.1 km/h 7.7 km/h 85 % 0 mm
05:00 -6.8 °C -8.4 °C 34601.5 hPa NE 2.6 km/h 5.1 km/h 84 % 0 mm
05:10 -6.7 °C -8.5 °C 34601.5 hPa NE 2.6 km/h 5.1 km/h 82 % 0 mm
05:20 -6.7 °C -8.5 °C 34601.5 hPa NE 5.1 km/h 7.7 km/h 82 % 0 mm
05:30 -6.7 °C -8.7 °C 34567.7 hPa NE 5.1 km/h 7.7 km/h 80 % 0 mm
05:40 -6.7 °C -8.7 °C 34601.5 hPa NE 5.1 km/h 7.7 km/h 80 % 0 mm
05:50 -6.6 °C -8.6 °C 34601.5 hPa NE 7.7 km/h 7.7 km/h 80 % 0 mm
06:00 -6.1 °C -8.3 °C 34601.5 hPa NNE 5.1 km/h 7.7 km/h 78 % 0 mm
09:40 -6.2 °C -9 °C 34635.4 hPa SW 5.1 km/h 7.7 km/h 73 % 0 mm
09:50 -6.6 °C -9.3 °C 34635.4 hPa SW 7.7 km/h 7.7 km/h 74 % 0 mm
10:00 -7.1 °C -9.5 °C 34635.4 hPa WSW 7.7 km/h 12.9 km/h 76 % 0 mm
10:10 -7.4 °C -9.6 °C 34635.4 hPa WSW 2.6 km/h 7.7 km/h 78 % 0 mm
10:20 -7.6 °C -9.7 °C 34635.4 hPa West 2.6 km/h 5.1 km/h 79 % 0 mm
10:30 -7.6 °C -9.7 °C 34635.4 hPa WNW 5.1 km/h 7.7 km/h 79 % 0 mm
11:04 -5.8 °C -8.3 °C 34601.5 hPa NE 3.1 km/h 3.1 km/h 76 % 0 mm
11:09 -5.6 °C -8 °C 34601.5 hPa ESE 9 km/h 9 km/h 76 % 0 mm
11:14 -5.4 °C -8.2 °C 34601.5 hPa NE 12.7 km/h 12.7 km/h 74 % 0 mm
11:19 -5.6 °C -8.2 °C 34601.5 hPa East 6.3 km/h 6.3 km/h 74 % 0 mm
11:24 -5.3 °C -8 °C 34601.5 hPa NNE 7.6 km/h   74 % 0 mm
11:29 -5.3 °C -8.2 °C 34601.5 hPa NNE 15 km/h 15 km/h 73 % 0 mm
11:34 -5.2 °C -8 °C 34601.5 hPa East 6 km/h 6.8 km/h 73 % 0 mm
11:39 -4.9 °C -7.9 °C 34601.5 hPa ENE 6.3 km/h 6.3 km/h 71 % 0 mm
11:44 -4.8 °C -7.9 °C 34601.5 hPa SE 6.3 km/h 6.3 km/h 71 % 0 mm
11:49 -4.8 °C -8.1 °C 34601.5 hPa ENE 9 km/h 9 km/h 70 % 0 mm
11:54 -4.9 °C -8.2 °C 34601.5 hPa ESE 8 km/h 8.5 km/h 69 % 0 mm
11:59 -5.1 °C -8.6 °C 34601.5 hPa ESE 9 km/h 9 km/h 68 % 0 mm
12:04 -5.2 °C -8.6 °C 34601.5 hPa ENE 9 km/h 9 km/h 69 % 0 mm
12:09 -5.2 °C -8.7 °C 34601.5 hPa SE 9 km/h 9 km/h 68 % 0 mm
12:14 -4.9 °C -8.6 °C 34601.5 hPa SSE 9 km/h 9 km/h 67 % 0 mm
12:19 -4.4 °C -8 °C 34601.5 hPa WSW 3.7 km/h 5.6 km/h 67 % 0 mm
12:24 -4.4 °C -8.3 °C 34601.5 hPa East 11.9 km/h 11.9 km/h 65 % 0 mm
12:25 -4.4 °C -8.3 °C 34601.5 hPa ENE 11.9 km/h 11.9 km/h 65 % 0 mm
12:30 -4.6 °C -8.4 °C 34601.5 hPa South 6 km/h 6 km/h 66 % 0 mm
12:35 -4.5 °C -8.2 °C 34601.5 hPa SSE 6 km/h 6 km/h 66 % 0 mm
12:40 -4.6 °C -8.5 °C 34601.5 hPa South 6.3 km/h 6.3 km/h 65 % 0 mm
12:45 -4.8 °C -8.7 °C 34601.5 hPa ESE 6.3 km/h 6.3 km/h 65 % 0 mm
12:50 -4.8 °C -8.7 °C 34601.5 hPa SSE 11.9 km/h 11.9 km/h 65 % 0 mm
12:55 -4.8 °C -8.8 °C 34601.5 hPa SSE 11.9 km/h 11.9 km/h 64 % 0 mm
13:00 -4.8 °C -8.7 °C 34601.5 hPa NE 6 km/h 6 km/h 65 % 0 mm
13:05 -4.8 °C -8.8 °C 34601.5 hPa ESE 9 km/h 9 km/h 64 % 0 mm
13:10 -4.7 °C -8.6 °C 34601.5 hPa SW 6 km/h 6 km/h 65 % 0 mm
13:15 -4.6 °C -8.6 °C 34601.5 hPa East 6 km/h 6 km/h 64 % 0 mm
13:20 -4.8 °C -8.8 °C 34601.5 hPa SW 6 km/h 6 km/h 64 % 0 mm
13:25 -4.8 °C -8.8 °C 34601.5 hPa SE 6.8 km/h   64 % 0 mm
13:30 -4.9 °C -8.9 °C 34601.5 hPa SSE 11.9 km/h 11.9 km/h 64 % 0 mm
13:35 -4.9 °C -8.7 °C 34601.5 hPa South 9.8 km/h 9.8 km/h 65 % 0 mm
13:40 -4.8 °C -8.7 °C 34601.5 hPa WSW 5.6 km/h 5.6 km/h 65 % 0 mm
13:45 -4.9 °C -8.9 °C 34601.5 hPa WSW 9 km/h 9 km/h 64 % 0 mm
13:50 -4.7 °C -8.6 °C 34601.5 hPa SSE 11.9 km/h 11.9 km/h 65 % 0 mm
13:55 -4.7 °C -8.6 °C 34601.5 hPa SW 6 km/h 6 km/h 65 % 0 mm
14:00 -4.7 °C -8.7 °C 34601.5 hPa SE 9 km/h 9 km/h 64 % 0 mm
14:05 -4.8 °C -9.1 °C 34601.5 hPa South 11.9 km/h 11.9 km/h 62 % 0 mm
14:10 -4.8 °C -8.8 °C 34601.5 hPa SW 9 km/h 9 km/h 64 % 0 mm
14:15 -4.8 °C -8.8 °C 34601.5 hPa WSW 3.1 km/h 3.1 km/h 64 % 0 mm
14:20 -4.9 °C -8.8 °C 34601.5 hPa SW 6 km/h 6 km/h 65 % 0 mm
14:25 -5 °C -8.8 °C 34601.5 hPa SW 12.2 km/h 12.2 km/h 65 % 0 mm
15:42 -7.7 °C -9.7 °C 34635.4 hPa NW 12.2 km/h 12.2 km/h 80 % 0 mm
15:47 -7.6 °C -9.6 °C 34635.4 hPa ENE 6.3 km/h 6.3 km/h 80 % 0 mm
15:52 -7.7 °C -9.6 °C 34635.4 hPa NE 9 km/h 9 km/h 80 % 104.14 mm
15:57 -7.6 °C -9.5 °C 34635.4 hPa NNW 9 km/h 9 km/h 80 % 104.14 mm
16:02 -7.6 °C -9.6 °C 34635.4 hPa NNE 9 km/h 9 km/h 80 % 104.14 mm
16:07 -7.6 °C -9.5 °C 34635.4 hPa NE 5.1 km/h 5.1 km/h 80 % 104.14 mm
16:12 -7.6 °C -9.6 °C 34635.4 hPa NE 9 km/h 9 km/h 80 % 104.14 mm
16:17 -7.5 °C -9.3 °C 34635.4 hPa NE 3.1 km/h   81 % 104.14 mm
16:22 -7.4 °C -9.3 °C 34601.5 hPa NE 4.2 km/h   80 % 104.14 mm
16:27 -7.3 °C -9.4 °C 34601.5 hPa NNE 17.9 km/h 17.9 km/h 79 % 104.14 mm
16:32 -7.3 °C -9.3 °C 34601.5 hPa ENE 11.9 km/h 11.9 km/h 79 % 104.14 mm
16:37 -7.4 °C -9.6 °C 34601.5 hPa ENE 11.9 km/h 11.9 km/h 78 % 104.14 mm
16:42 -7.5 °C -9.7 °C 34601.5 hPa NNE 15 km/h 15 km/h 78 % 104.14 mm
16:47 -7.5 °C -9.8 °C 34601.5 hPa NE 15 km/h 15 km/h 77 % 104.14 mm
16:52 -7.5 °C -9.8 °C 34601.5 hPa NNE 17.9 km/h 17.9 km/h 77 % 0 mm
16:57 -7.4 °C -9.7 °C 34601.5 hPa NNE 15 km/h 15 km/h 77 % 0 mm
17:02 -7.4 °C -9.7 °C 34601.5 hPa ENE 9.8 km/h 9.8 km/h 77 % 0 mm
17:07 -7.4 °C -9.7 °C 34601.5 hPa NE 11.9 km/h 11.9 km/h 77 % 0 mm
17:12 -7.4 °C -9.8 °C 34601.5 hPa ENE 14 km/h 14 km/h 76 % 0 mm
17:17 -7.3 °C -9.7 °C 34601.5 hPa NE 11.9 km/h 11.9 km/h 76 % 0 mm
17:22 -7.3 °C -9.7 °C 34601.5 hPa ENE 11.9 km/h 11.9 km/h 76 % 0 mm
17:27 -7.2 °C -9.8 °C 34601.5 hPa NE 9 km/h 9 km/h 74 % 0 mm
17:32 -7.2 °C -9.8 °C 34601.5 hPa Calm     74 % 0 mm
17:37 -7.2 °C -9.9 °C 34601.5 hPa ENE 9 km/h 9 km/h 73 % 0 mm
17:38 -7.2 °C -9.9 °C 34601.5 hPa ENE 9 km/h 9 km/h 73 % 0 mm
17:43 -7.1 °C -9.8 °C 34601.5 hPa ENE 3.1 km/h   73 % 0 mm
17:48 -7 °C -9.6 °C 34601.5 hPa NE 3.7 km/h   74 % 0 mm
17:53 -7 °C -9.6 °C 34601.5 hPa North 3.1 km/h   74 % 0 mm
17:58 -6.9 °C -9.6 °C 34601.5 hPa North 3.1 km/h   74 % 0 mm
18:03 -7.1 °C -9.8 °C 34601.5 hPa NNE 6 km/h 6.3 km/h 73 % 0 mm
18:08 -7.1 °C -9.9 °C 34601.5 hPa NE 4.2 km/h 4.2 km/h 73 % 0 mm
18:13 -7.2 °C -10.1 °C 34601.5 hPa ENE 3.1 km/h   72 % 0 mm
18:18 -7.2 °C -10.1 °C 34601.5 hPa ENE 3.1 km/h   72 % 0 mm
18:23 -7.2 °C -9.9 °C 34601.5 hPa ENE 3.7 km/h 3.7 km/h 73 % 0 mm
18:28 -7.1 °C -9.9 °C 34601.5 hPa Calm     73 % 0 mm
18:33 -7.2 °C -10.1 °C 34601.5 hPa Calm     72 % 0 mm
18:38 -7.2 °C -10.1 °C 34601.5 hPa ENE 3.7 km/h 3.7 km/h 72 % 0 mm
18:43 -7.2 °C -10.1 °C 34601.5 hPa ENE 4.2 km/h 4.2 km/h 72 % 0 mm
18:48 -7.2 °C -9.9 °C 34601.5 hPa Calm     73 % 0 mm
18:53 -7.2 °C -9.9 °C 34601.5 hPa Calm     73 % 0 mm
18:58 -7.2 °C -9.9 °C 34601.5 hPa Calm     73 % 0 mm
19:03 -7.2 °C -9.8 °C 34601.5 hPa Calm     74 % 0 mm
19:08 -7.2 °C -9.8 °C 34601.5 hPa ENE 3.1 km/h 3.1 km/h 74 % 0 mm
19:13 -7.3 °C -9.7 °C 34601.5 hPa ENE 3.1 km/h   76 % 0 mm
19:18 -7.3 °C -9.7 °C 34601.5 hPa ENE 3.7 km/h   76 % 0 mm
19:23 -7.3 °C -9.7 °C 34601.5 hPa ENE 3.1 km/h   76 % 0 mm
19:28 -7.4 °C -9.8 °C 34601.5 hPa Calm     76 % 0 mm
19:33 -7.4 °C -9.8 °C 34601.5 hPa Calm     76 % 0 mm
19:38 -7.5 °C -9.9 °C 34601.5 hPa Calm     76 % 0 mm
19:43 -7.5 °C -9.9 °C 34601.5 hPa ENE 4.2 km/h 4.2 km/h 76 % 0 mm
19:48 -7.6 °C -9.9 °C 34601.5 hPa ENE 6 km/h 6 km/h 76 % 0 mm
19:53 -7.6 °C -9.8 °C 34601.5 hPa ENE 3.1 km/h   77 % 0 mm
19:58 -7.6 °C -9.8 °C 34601.5 hPa ENE 3.1 km/h   77 % 0 mm
20:03 -7.6 °C -9.9 °C 34601.5 hPa ENE 3.7 km/h   77 % 0 mm
20:08 -7.7 °C -9.9 °C 34601.5 hPa NE 6 km/h 6 km/h 77 % 0 mm
20:13 -7.7 °C -9.9 °C 34601.5 hPa NNE 6 km/h 6 km/h 77 % 0 mm
20:18 -7.7 °C -10 °C 34601.5 hPa NNE 3.1 km/h   77 % 0 mm
20:23 -7.8 °C -10 °C 34601.5 hPa NNE 9 km/h 9 km/h 78 % 0 mm
20:28 -7.9 °C -10.1 °C 34601.5 hPa NNE 6 km/h 6 km/h 78 % 0 mm
20:33 -7.9 °C -10.1 °C 34567.7 hPa NNE 9 km/h 9 km/h 78 % 0 mm
20:38 -7.9 °C -10.1 °C 34567.7 hPa NNE 6 km/h 6 km/h 78 % 0 mm
20:43 -8 °C -10.2 °C 34567.7 hPa Calm     78 % 0 mm
20:48 -8 °C -10.1 °C 34601.5 hPa NNE 3.1 km/h   79 % 0 mm
20:53 -8 °C -10.1 °C 34601.5 hPa North 6 km/h 6 km/h 79 % 0 mm
20:58 -8.1 °C -10.1 °C 34601.5 hPa NE 9 km/h 9 km/h 79 % 0 mm
21:03 -8.1 °C -10.1 °C 34601.5 hPa NNE 6 km/h 6 km/h 79 % 0 mm
21:08 -8.1 °C -10.1 °C 34601.5 hPa NNE 7.6 km/h 7.6 km/h 79 % 0 mm
21:13 -8.1 °C -10.1 °C 34601.5 hPa NNE 6.3 km/h 6.3 km/h 79 % 0 mm
21:18 -8.1 °C -10.1 °C 34601.5 hPa NNE 9 km/h 9 km/h 79 % 0 mm
21:23 -8.1 °C -10.1 °C 34601.5 hPa NNW 9 km/h 9 km/h 79 % 0 mm
21:28 -8.1 °C -10.1 °C 34601.5 hPa North 6 km/h 6 km/h 79 % 0 mm
21:33 -8.1 °C -10.1 °C 34601.5 hPa NNW 6 km/h   79 % 0 mm
21:38 -8.1 °C -10.1 °C 34601.5 hPa NNW 6 km/h   79 % 0 mm
21:43 -8.1 °C -10.1 °C 34601.5 hPa NW 6.8 km/h 6.8 km/h 79 % 0 mm
21:48 -8 °C -10.1 °C 34601.5 hPa NW 6 km/h 6 km/h 79 % 0 mm
21:53 -8 °C -10.1 °C 34601.5 hPa NNW 6 km/h 6 km/h 79 % 0 mm
21:58 -8.1 °C -10.1 °C 34601.5 hPa NW 9 km/h 9 km/h 79 % 0 mm
22:03 -8.1 °C -10.1 °C 34601.5 hPa NW 6 km/h   79 % 0 mm
22:08 -8.1 °C -10.2 °C 34601.5 hPa NW 3.1 km/h   79 % 0 mm
22:13 -8.1 °C -10.2 °C 34601.5 hPa NW 6 km/h 6 km/h 79 % 0 mm
22:18 -8.1 °C -10.2 °C 34635.4 hPa NW 6.3 km/h 6.3 km/h 79 % 0 mm
22:23 -8.2 °C -10.1 °C 34635.4 hPa NW 4.2 km/h   80 % 0 mm
22:28 -8.2 °C -10.1 °C 34635.4 hPa NW 4.2 km/h 4.2 km/h 80 % 0 mm
22:33 -8.2 °C -10.1 °C 34635.4 hPa NW 3.7 km/h 3.7 km/h 80 % 0 mm
22:38 -8.2 °C -10.1 °C 34635.4 hPa NW 3.1 km/h   80 % 0 mm
22:43 -8.2 °C -10.1 °C 34635.4 hPa NW 6 km/h 6 km/h 80 % 0 mm
22:48 -8.2 °C -10.1 °C 34635.4 hPa NW 6 km/h 6 km/h 80 % 0 mm
22:53 -8.1 °C -10.1 °C 34635.4 hPa NW 3.1 km/h 4.2 km/h 80 % 0 mm
22:58 -8.1 °C -9.9 °C 34635.4 hPa Calm     81 % 0 mm
23:03 -8.1 °C -9.9 °C 34635.4 hPa NW 6 km/h   81 % 0 mm
23:08 -8.1 °C -9.9 °C 34635.4 hPa NW 3.7 km/h 3.7 km/h 81 % 0 mm
23:13 -8.1 °C -9.9 °C 34635.4 hPa Calm     81 % 0 mm
23:18 -8.1 °C -9.9 °C 34635.4 hPa Calm     81 % 0 mm
23:23 -8.1 °C -9.9 °C 34635.4 hPa NW 3.1 km/h 3.1 km/h 81 % 0 mm
23:28 -8.1 °C -9.9 °C 34635.4 hPa Calm     81 % 0 mm
23:33 -8.1 °C -9.9 °C 34635.4 hPa NW 3.1 km/h   81 % 0 mm
23:38 -8.2 °C -9.9 °C 34635.4 hPa Calm     82 % 0 mm
23:43 -8.2 °C -9.9 °C 34635.4 hPa NW 3.1 km/h 3.1 km/h 82 % 0 mm
23:48 -8.2 °C -9.9 °C 34635.4 hPa Calm     82 % 0 mm
23:53 -8.2 °C -9.9 °C 34635.4 hPa NW 3.1 km/h   82 % 0 mm
23:58 -8.3 °C -10 °C 34635.4 hPa Calm     82 % 0 mm
Meteo Sesrovires
Elogis d' Weather Underground - 3.5 mb

Guio original per  Jim McMurry - jmcmurry@mwt.net Adaptat per a la plantilla per  Wim van der Kuil - Leuven-Template.eu

Trobareu la nostra informacio del temps tambe a:

Weather Underground

AWEKAS